Terminal Aerodrome Forecast
Issued by NWS

Home | Current Version | Previous Version | Text Only | Print | Product List | Glossary On
Versions: 1 2 3 4 5 6 7 8 9 10 11 12 13 14 15 16 17
218
FTUS43 KJKL 260527
TAFSME
TAF
KSME 260527Z 2606/2706 17004KT P6SM OVC080
     FM260700 17004KT 5SM -SHRA OVC030
     FM261200 19006KT P6SM VCSH BKN030
     FM261400 21010G20KT P6SM VCSH BKN035=

USA.gov is the U.S. government's official web portal to all federal, state and local government web resources and services.